Furnace Green, United Kingdom
Current Conditions -  °F | °C
As of 2:50 AM on Tuesday 23 Dec 2014 (Local Time) from EGKK Reporting Station
Broken Clouds Broken Clouds  
Wind Chill: 52°   Ceiling: 2700
Heat Index: 52°   Visibility: 6mi
Dew Point: 45°   Wind: 13mph
Humidity: 76%   Direction: 240°WSW
Pressure: 30.09"   Gusts: NA
Location:  51.11°N, 0.17°W
Report Text: EGKK 230250Z 24011KT 9999 BKN027 11/07 Q1019
Loading
Personal Weather Stations






























Interactive Weather Map New forecast layout! Learn more

10-Day Weather Forecast

Advertisements
Track Severe Weather on mobile